Grand Rapids, MI (49548)

7:18 PM EDT on August 31, 2015 (GMT -0400)
Cutlerville | | Change Station
CLOSE
Current Station
Personal Weather Station
Location: Grand Rapids, MI
Elevation: 679 ft
Nearby Weather Stations

Elev 679 ft 42.84 °N, 85.66 °W | Updated 8 seconds ago

Clear
Clear
80.1 °F
Feels Like 83 °F
N
1.0
Wind Variable Wind from WSW
Gusts 2.0 mph

Today
High -- | Low -- °F
--% Chance of Precip.
Yesterday
High -- | Low -- °F
Precip. -- in
7:05 AM 8:19 PM
Waning Gibbous, 93% visible
Pressure 30.04 in
Visibility 9.0 miles
Clouds Clear
Heat Index 83 °F
Dew Point 69 °F
Humidity 70%
Rainfall 0.00 in
Snow Depth Not available.
UV 1 out of 12
Pollen 10.40 out of 12
Air Quality Not available.
Flu Activity Not available.
METAR KGRR 312253Z 25004KT 9SM CLR 27/19 A3005 RMK AO2 SLP172 T02670194
Pressure 30.04 in
Visibility 9.0 miles
Clouds Clear
Heat Index 83 °F
Dew Point 69 °F
Humidity 70%
Rainfall 0.00 in
Snow Depth Not available.
UV 1 out of 12
Pollen 10.40 out of 12
Air Quality Not available.
Flu Activity Not available.
METAR KGRR 312253Z 25004KT 9SM CLR 27/19 A3005 RMK AO2 SLP172 T02670194

10-Day Weather Forecast

×

Almanac

Astronomy

Aug. 31, 2015 Rise Set
Actual Time
Civil Twilight
Nautical Twilight
Astronomical Twilight
Moon
Length of Visible Light
Length of Day
Tomorrow will be .
, % of the Moon is Illuminated

Today's Extremes

State Highs State Lows

Community

WunderPhotos

Upload Photos

1,851,390 photos uploaded!

WunderBlogs® & News

Nearby

Air Quality

  Air Quality AQ Index Pollutant
Not available.

Snow Depth

Station Depth Elevation

Earthquake Activity

City Distance Mag. Time & Date
Minimum magnitude displayed is 2.5.

Coastal Water Temperatures

Place Temperature

Stations

Nearby Weather Stations

Station Location Temp. Windchill Dew Point Humidity Wind Precip. Elev Updated Type